Time;durP1;ratioP1;P1;durP2;ratioP2;P2;SDS_P1;SDS_P2;PMS_P1;PMS_P2;Temp;Humidity;BMP_temperature;BMP_pressure;BME280_temperature;BME280_humidity;BME280_pressure;Samples;Min_cycle;Max_cycle;Signal;HPM_P1;HPM_P2
2023/01/29 00:02:13;;;;;;;19.83;12.40;;;3.60;99.90;;;;;;5017955;28;20041;-95
2023/01/29 00:04:38;;;;;;;18.40;12.48;;;3.60;99.90;;;;;;5021880;28;20049;-95
2023/01/29 00:07:04;;;;;;;19.88;11.50;;;3.50;99.90;;;;;;5002273;28;20073;-95
2023/01/29 00:09:30;;;;;;;20.38;13.00;;;3.50;99.90;;;;;;4986277;28;20498;-96
2023/01/29 00:11:56;;;;;;;19.63;12.65;;;3.50;99.90;;;;;;5006801;28;20038;-95
2023/01/29 00:14:22;;;;;;;18.98;11.60;;;3.60;99.90;;;;;;5003724;28;20084;-95
2023/01/29 00:16:47;;;;;;;20.08;11.50;;;3.60;99.90;;;;;;5003370;28;20041;-95
2023/01/29 00:19:13;;;;;;;20.98;11.95;;;3.60;99.90;;;;;;5006201;28;20038;-94
2023/01/29 00:21:38;;;;;;;20.08;12.55;;;3.60;99.90;;;;;;5021961;28;20501;-95
2023/01/29 00:24:04;;;;;;;19.90;12.55;;;3.60;99.90;;;;;;5021225;28;20478;-95
2023/01/29 00:26:30;;;;;;;18.52;11.20;;;3.60;99.90;;;;;;5011756;28;20034;-95
2023/01/29 00:28:56;;;;;;;19.00;11.55;;;3.60;99.90;;;;;;5002434;28;20340;-94
2023/01/29 00:31:23;;;;;;;19.05;10.90;;;3.60;99.90;;;;;;5001795;28;20042;-95
2023/01/29 00:33:49;;;;;;;19.77;10.93;;;3.70;99.90;;;;;;4995308;28;20049;-94
2023/01/29 00:36:17;;;;;;;18.80;12.15;;;3.70;99.90;;;;;;5021222;28;20050;-95
2023/01/29 00:38:43;;;;;;;22.33;12.23;;;3.80;99.90;;;;;;5005954;28;20045;-95
2023/01/29 00:46:44;;;;;;;21.13;12.65;;;3.70;99.90;;;;;;5026950;28;20038;-95
2023/01/29 00:49:10;;;;;;;20.67;12.55;;;3.80;99.90;;;;;;5037177;28;20061;-96
2023/01/29 00:51:37;;;;;;;18.85;11.38;;;3.70;99.90;;;;;;5021907;28;20397;-95
2023/01/29 00:54:05;;;;;;;18.70;11.52;;;3.80;99.90;;;;;;5018532;28;20100;-96
2023/01/29 00:56:32;;;;;;;23.88;12.48;;;3.70;99.90;;;;;;5024914;28;20067;-95
2023/01/29 00:58:58;;;;;;;20.05;12.32;;;3.80;99.90;;;;;;5022504;28;20046;-94
2023/01/29 01:04:10;;;;;;;21.92;12.13;;;3.80;99.90;;;;;;5019504;28;20050;-95
2023/01/29 01:06:40;;;;;;;23.13;12.38;;;3.80;99.90;;;;;;5003475;28;20030;-94
2023/01/29 01:11:52;;;;;;;22.35;13.30;;;3.70;99.90;;;;;;5021105;28;20052;-95
2023/01/29 01:14:19;;;;;;;22.10;13.48;;;3.80;99.90;;;;;;5019944;28;20066;-94
2023/01/29 01:16:45;;;;;;;19.42;12.77;;;3.70;99.90;;;;;;5002035;28;20041;-95
2023/01/29 01:19:13;;;;;;;23.30;13.80;;;3.80;99.90;;;;;;5001852;28;20061;-95
2023/01/29 01:21:39;;;;;;;24.75;13.82;;;3.80;99.90;;;;;;5017899;28;20041;-95
2023/01/29 01:24:04;;;;;;;19.75;11.80;;;3.70;99.90;;;;;;5000980;28;20128;-95
2023/01/29 01:26:31;;;;;;;20.27;11.13;;;3.70;99.90;;;;;;5000238;28;20084;-96
2023/01/29 01:28:58;;;;;;;20.25;13.00;;;3.80;99.90;;;;;;4981009;28;20089;-94
2023/01/29 01:31:24;;;;;;;19.67;11.85;;;3.80;99.90;;;;;;4981231;28;20034;-95
2023/01/29 01:33:50;;;;;;;22.13;13.60;;;3.80;99.90;;;;;;4984004;28;20038;-96
2023/01/29 01:36:17;;;;;;;19.80;11.80;;;3.80;99.90;;;;;;5000087;28;20074;-95
2023/01/29 01:38:43;;;;;;;20.08;12.80;;;3.80;99.90;;;;;;5005416;28;20046;-95
2023/01/29 01:41:18;;;;;;;20.80;12.18;;;3.80;99.90;;;;;;4981381;28;20510;-93
2023/01/29 01:43:53;;;;;;;19.90;10.98;;;3.80;99.90;;;;;;4981863;28;20044;-96
2023/01/29 01:46:19;;;;;;;19.83;12.65;;;3.80;99.90;;;;;;4983456;28;20054;-95
2023/01/29 01:48:53;;;;;;;21.38;11.45;;;3.80;99.90;;;;;;4998469;28;20038;-96
2023/01/29 01:51:20;;;;;;;19.73;12.57;;;3.90;99.90;;;;;;5000123;28;20516;-95
2023/01/29 01:54:06;;;;;;;20.35;12.23;;;3.90;99.90;;;;;;5017314;28;20097;-94
2023/01/29 01:56:39;;;;;;;19.65;11.35;;;3.90;99.90;;;;;;5017392;28;20151;-95
2023/01/29 01:59:09;;;;;;;21.80;11.95;;;3.90;99.90;;;;;;5001193;28;20095;-95
2023/01/29 02:01:37;;;;;;;19.77;11.95;;;3.90;99.90;;;;;;5000988;28;20073;-95
2023/01/29 02:10:08;;;;;;;22.20;12.55;;;3.90;99.90;;;;;;5000370;28;20062;-94
2023/01/29 02:12:36;;;;;;;22.85;11.15;;;3.90;99.90;;;;;;5005369;28;20076;-94
2023/01/29 02:15:02;;;;;;;21.60;11.70;;;3.90;99.90;;;;;;4998306;28;20034;-96
2023/01/29 02:17:28;;;;;;;18.63;11.90;;;3.90;99.90;;;;;;5007784;28;20038;-96
2023/01/29 02:20:18;;;;;;;19.38;12.18;;;3.90;99.90;;;;;;4997667;28;20111;-95
2023/01/29 02:22:54;;;;;;;19.50;12.80;;;3.90;99.90;;;;;;4998490;28;20033;-96
2023/01/29 02:25:36;;;;;;;22.23;12.98;;;3.90;99.90;;;;;;5015095;28;20509;-95
2023/01/29 02:28:05;;;;;;;19.58;12.85;;;3.90;99.90;;;;;;5015624;28;20033;-95
2023/01/29 02:30:54;;;;;;;20.77;11.85;;;3.90;99.90;;;;;;5015526;28;20053;-95
2023/01/29 02:33:28;;;;;;;19.15;11.00;;;3.90;99.90;;;;;;5012155;28;20556;-96
2023/01/29 02:36:14;;;;;;;18.70;11.80;;;3.90;99.90;;;;;;5016214;28;20042;-95
2023/01/29 02:39:10;;;;;;;19.80;12.95;;;3.90;99.90;;;;;;5001357;28;20037;-93
2023/01/29 02:41:45;;;;;;;22.63;13.75;;;3.90;99.90;;;;;;5004177;28;20103;-95
2023/01/29 02:44:24;;;;;;;21.25;12.80;;;3.90;99.90;;;;;;4996539;28;20078;-95
2023/01/29 02:47:20;;;;;;;19.42;12.18;;;3.90;99.90;;;;;;5017810;28;20069;-94
2023/01/29 02:49:48;;;;;;;20.33;13.32;;;3.90;99.90;;;;;;5033491;28;20038;-96
2023/01/29 02:52:20;;;;;;;20.80;12.73;;;3.90;99.90;;;;;;5014746;28;20076;-96
2023/01/29 02:55:03;;;;;;;;;;;3.90;99.90;;;;;;4998455;28;20044;-96
2023/01/29 02:57:36;;;;;;;21.92;13.30;;;3.90;99.90;;;;;;5000393;28;19909;-95
2023/01/29 03:00:13;;;;;;;22.33;13.02;;;3.90;99.90;;;;;;5020231;28;20037;-95
2023/01/29 03:02:52;;;;;;;20.02;12.52;;;3.90;99.90;;;;;;5022212;28;20094;-95
2023/01/29 03:05:29;;;;;;;19.17;11.73;;;3.90;99.90;;;;;;5019080;28;20042;-95
2023/01/29 03:08:00;;;;;;;19.95;12.10;;;3.90;99.90;;;;;;5002329;28;20060;-96
2023/01/29 03:10:35;;;;;;;19.38;12.98;;;3.90;99.90;;;;;;5002930;28;20531;-95
2023/01/29 03:13:32;;;;;;;19.15;11.07;;;4.00;99.90;;;;;;5016073;28;20084;-95
2023/01/29 03:16:06;;;;;;;19.88;11.75;;;4.00;99.90;;;;;;5003920;28;20437;-96
2023/01/29 03:18:40;;;;;;;20.58;11.25;;;4.00;99.90;;;;;;5021041;28;20068;-95
2023/01/29 03:32:17;;;;;;;23.00;11.90;;;4.00;99.90;;;;;;5015780;28;20046;-95
2023/01/29 03:34:50;;;;;;;20.52;13.02;;;4.00;99.90;;;;;;4999303;28;20049;-95
2023/01/29 03:37:40;;;;;;;21.27;12.07;;;4.00;99.90;;;;;;4991789;28;20073;-95
2023/01/29 03:40:08;;;;;;;21.75;12.73;;;4.00;99.90;;;;;;4990523;28;20042;-95
2023/01/29 03:42:47;;;;;;;22.70;12.85;;;4.00;99.90;;;;;;4993076;28;20038;-94
2023/01/29 03:45:25;;;;;;;20.15;13.73;;;4.00;99.90;;;;;;4994921;28;20069;-96
2023/01/29 03:48:22;;;;;;;20.80;12.48;;;4.10;99.90;;;;;;4988690;28;20046;-94
2023/01/29 03:50:48;;;;;;;20.52;13.07;;;4.10;99.90;;;;;;4984972;28;20049;-95
2023/01/29 03:53:46;;;;;;;23.45;14.48;;;4.00;99.90;;;;;;4995285;28;20045;-94
2023/01/29 03:56:24;;;;;;;20.95;13.73;;;4.00;99.90;;;;;;5007172;28;20080;-95
2023/01/29 03:58:57;;;;;;;26.60;13.88;;;4.00;99.90;;;;;;5023591;28;20092;-95
2023/01/29 04:01:30;;;;;;;23.23;15.73;;;4.00;99.90;;;;;;5010426;28;20029;-95
2023/01/29 04:04:14;;;;;;;24.67;15.50;;;4.00;99.90;;;;;;5004585;28;20038;-94
2023/01/29 04:06:42;;;;;;;20.48;12.18;;;4.00;99.90;;;;;;5003840;28;20037;-95
2023/01/29 04:09:15;;;;;;;25.17;16.77;;;4.00;99.90;;;;;;5002140;28;20050;-96
2023/01/29 04:11:47;;;;;;;24.45;15.38;;;4.00;99.90;;;;;;4998859;28;20537;-95
2023/01/29 04:14:14;;;;;;;22.48;14.40;;;4.00;99.90;;;;;;4993589;28;20192;-95
2023/01/29 04:16:46;;;;;;;27.92;16.23;;;4.10;99.90;;;;;;5001496;28;20053;-94
2023/01/29 04:19:11;;;;;;;24.45;16.50;;;4.10;99.90;;;;;;5001693;28;20048;-96
2023/01/29 04:21:37;;;;;;;26.38;17.30;;;4.10;99.90;;;;;;5002570;28;20046;-95
2023/01/29 04:24:05;;;;;;;24.58;15.95;;;4.10;99.90;;;;;;5006509;28;20056;-95
2023/01/29 04:26:36;;;;;;;23.50;14.57;;;4.10;99.90;;;;;;5003827;28;20101;-96
2023/01/29 04:29:08;;;;;;;;;;;4.10;99.90;;;;;;5020890;28;20037;-95
2023/01/29 04:32:03;;;;;;;23.90;15.27;;;4.20;99.90;;;;;;5021766;28;20045;-95
2023/01/29 04:34:48;;;;;;;27.73;16.40;;;4.20;99.90;;;;;;5001055;28;20053;-95
2023/01/29 04:37:22;;;;;;;27.23;17.02;;;4.20;99.90;;;;;;5005952;28;20449;-96
2023/01/29 04:40:02;;;;;;;27.02;18.23;;;4.20;99.90;;;;;;5020883;28;20034;-95
2023/01/29 04:42:49;;;;;;;23.00;13.57;;;4.20;99.90;;;;;;5021364;28;20049;-95
2023/01/29 04:45:21;;;;;;;28.02;16.25;;;4.30;99.90;;;;;;4983477;28;20038;-95
2023/01/29 04:48:15;;;;;;;23.52;15.57;;;4.30;99.90;;;;;;4981386;28;20042;-94
2023/01/29 04:50:54;;;;;;;27.88;17.70;;;4.30;99.90;;;;;;4984272;28;20042;-95
2023/01/29 04:53:35;;;;;;;27.67;19.90;;;4.20;99.90;;;;;;5006674;28;20036;-96
2023/01/29 04:56:17;;;;;;;;;;;4.20;99.90;;;;;;5007456;28;20049;-94
2023/01/29 04:58:51;;;;;;;24.42;14.82;;;4.30;99.90;;;;;;5029325;28;19925;-95
2023/01/29 05:01:18;;;;;;;29.70;16.23;;;4.30;99.90;;;;;;5022757;28;20045;-94
2023/01/29 05:03:49;;;;;;;25.13;15.95;;;4.20;99.90;;;;;;5019067;28;20122;-95
2023/01/29 05:06:16;;;;;;;25.98;17.58;;;4.30;99.90;;;;;;5021701;28;20041;-96
2023/01/29 05:08:43;;;;;;;28.63;17.17;;;4.20;99.90;;;;;;5003156;28;20038;-96
2023/01/29 05:11:10;;;;;;;27.88;16.00;;;4.30;99.90;;;;;;5037129;28;20042;-95
2023/01/29 05:13:40;;;;;;;28.63;18.35;;;4.30;99.90;;;;;;5018657;28;20061;-95
2023/01/29 05:16:22;;;;;;;28.33;17.23;;;4.30;99.90;;;;;;5007765;28;20048;-96
2023/01/29 05:18:48;;;;;;;29.92;20.60;;;4.30;99.90;;;;;;5019332;28;20052;-95
2023/01/29 05:21:14;;;;;;;28.58;18.98;;;4.30;99.90;;;;;;5015833;28;20066;-94
2023/01/29 05:23:51;;;;;;;27.17;17.27;;;4.20;99.90;;;;;;5019529;28;20034;-94
2023/01/29 05:29:08;;;;;;;24.67;16.05;;;4.20;99.90;;;;;;5027852;28;20049;-95
2023/01/29 05:31:33;;;;;;;27.55;15.65;;;4.20;99.90;;;;;;5008422;28;20042;-96
2023/01/29 05:33:59;;;;;;;26.80;16.27;;;4.20;99.90;;;;;;5000501;28;20038;-95
2023/01/29 05:36:26;;;;;;;25.63;17.15;;;4.20;99.90;;;;;;5004842;28;20091;-96
2023/01/29 05:38:51;;;;;;;26.65;17.02;;;4.20;99.90;;;;;;5001827;28;20106;-94
2023/01/29 05:41:17;;;;;;;26.45;17.80;;;4.30;99.90;;;;;;5003328;28;20065;-94
2023/01/29 05:43:43;;;;;;;28.55;18.60;;;4.20;99.90;;;;;;5016259;28;20054;-95
2023/01/29 05:46:09;;;;;;;26.73;16.48;;;4.20;99.90;;;;;;5001853;28;20045;-95
2023/01/29 05:48:35;;;;;;;27.50;16.92;;;4.20;99.90;;;;;;5017138;28;20054;-94
2023/01/29 05:51:01;;;;;;;27.90;20.00;;;4.20;99.90;;;;;;4998659;28;20038;-94
2023/01/29 05:53:28;;;;;;;25.50;16.80;;;4.30;99.90;;;;;;5015914;28;20053;-94
2023/01/29 05:55:56;;;;;;;29.02;19.33;;;4.20;99.90;;;;;;5018407;28;20196;-95
2023/01/29 05:58:22;;;;;;;29.02;19.63;;;4.20;99.90;;;;;;5005071;28;20500;-94
2023/01/29 06:00:48;;;;;;;29.50;19.73;;;4.20;99.90;;;;;;5020696;28;20046;-94
2023/01/29 06:03:14;;;;;;;28.65;18.48;;;4.20;99.90;;;;;;5019794;28;20073;-94
2023/01/29 06:05:39;;;;;;;30.17;19.77;;;4.10;99.90;;;;;;5016633;28;20038;-95
2023/01/29 06:08:06;;;;;;;26.30;17.73;;;4.10;99.90;;;;;;4999195;28;20046;-93
2023/01/29 06:10:32;;;;;;;29.55;18.17;;;4.10;99.90;;;;;;5007976;28;20057;-94
2023/01/29 06:12:58;;;;;;;23.95;18.58;;;4.10;99.90;;;;;;4988168;28;20046;-95
2023/01/29 06:15:25;;;;;;;29.10;20.23;;;4.10;99.90;;;;;;5015516;28;20466;-95
2023/01/29 06:17:53;;;;;;;29.67;20.90;;;4.10;99.90;;;;;;5015425;28;20053;-94
2023/01/29 06:20:18;;;;;;;29.60;19.25;;;4.10;99.90;;;;;;4991498;28;20048;-95
2023/01/29 06:22:44;;;;;;;26.92;18.02;;;4.20;99.90;;;;;;4989609;28;20120;-93
2023/01/29 06:25:10;;;;;;;24.52;16.90;;;4.20;99.90;;;;;;4996741;28;20034;-94
2023/01/29 06:27:35;;;;;;;25.98;16.83;;;4.20;99.90;;;;;;5006478;28;20034;-90
2023/01/29 06:30:03;;;;;;;29.38;19.17;;;4.20;99.90;;;;;;4982028;28;20097;-88
2023/01/29 06:32:28;;;;;;;27.17;19.38;;;4.20;99.90;;;;;;4999340;28;20419;-90
2023/01/29 06:34:54;;;;;;;28.17;18.08;;;4.20;99.90;;;;;;4986291;28;20045;-92
2023/01/29 06:37:19;;;;;;;26.38;19.00;;;4.20;99.90;;;;;;4977466;28;20096;-89
2023/01/29 06:39:45;;;;;;;27.17;17.45;;;4.20;99.90;;;;;;4982157;28;20042;-88
2023/01/29 06:42:10;;;;;;;29.20;18.88;;;4.20;99.90;;;;;;4974622;28;20053;-86
2023/01/29 06:44:36;;;;;;;28.02;18.98;;;4.10;99.90;;;;;;5008783;28;20446;-88
2023/01/29 06:47:02;;;;;;;28.05;16.92;;;4.20;99.90;;;;;;4985995;28;20093;-91
2023/01/29 06:49:27;;;;;;;27.23;17.73;;;4.10;99.90;;;;;;4998806;28;20114;-88
2023/01/29 06:51:53;;;;;;;27.58;17.75;;;4.10;99.90;;;;;;4991999;28;20053;-87
2023/01/29 06:54:18;;;;;;;24.40;18.35;;;4.10;99.90;;;;;;4997215;28;20046;-87
2023/01/29 06:56:44;;;;;;;25.45;18.13;;;4.10;99.90;;;;;;4991584;28;20045;-89
2023/01/29 06:59:11;;;;;;;28.25;18.80;;;4.10;99.90;;;;;;4984241;28;20038;-89
2023/01/29 07:01:42;;;;;;;25.52;17.23;;;4.10;99.90;;;;;;4994320;28;20034;-86
2023/01/29 07:04:11;;;;;;;35.00;31.58;;;4.10;99.90;;;;;;4992108;28;20137;-85
2023/01/29 07:06:37;;;;;;;27.70;18.33;;;4.10;99.90;;;;;;5006041;28;20053;-86
2023/01/29 07:09:03;;;;;;;28.35;18.45;;;4.10;99.90;;;;;;4994469;28;20053;-87
2023/01/29 07:11:29;;;;;;;28.77;18.05;;;4.10;99.90;;;;;;5002545;28;20041;-90
2023/01/29 07:13:55;;;;;;;27.15;17.38;;;4.10;99.90;;;;;;4993279;28;20145;-86
2023/01/29 07:16:22;;;;;;;27.27;17.48;;;4.10;99.90;;;;;;4983744;28;20125;-85
2023/01/29 07:18:47;;;;;;;29.95;17.92;;;4.10;99.90;;;;;;5006084;28;20100;-88
2023/01/29 07:21:13;;;;;;;29.50;20.38;;;4.10;99.90;;;;;;5000682;28;20068;-87
2023/01/29 07:23:39;;;;;;;28.80;18.45;;;4.10;99.90;;;;;;5001310;28;20048;-85
2023/01/29 07:26:05;;;;;;;28.80;18.15;;;4.10;99.90;;;;;;5008435;28;20153;-86
2023/01/29 07:28:34;;;;;;;25.70;17.27;;;4.10;99.90;;;;;;5008706;28;20037;-87
2023/01/29 07:31:00;;;;;;;28.17;16.80;;;4.10;99.90;;;;;;5010682;28;20042;-85
2023/01/29 07:33:26;;;;;;;27.70;19.63;;;4.10;99.90;;;;;;4985365;28;20034;-84
2023/01/29 07:35:51;;;;;;;36.05;32.35;;;4.10;99.90;;;;;;4997425;28;20413;-86
2023/01/29 07:38:17;;;;;;;25.30;17.00;;;4.20;99.90;;;;;;5024608;28;20482;-86
2023/01/29 07:40:43;;;;;;;29.08;18.75;;;4.20;99.90;;;;;;4994210;28;20050;-86
2023/01/29 07:43:10;;;;;;;30.08;19.33;;;4.20;99.90;;;;;;4996375;28;20041;-85
2023/01/29 07:45:38;;;;;;;28.52;18.73;;;4.20;99.90;;;;;;5006318;28;20046;-86
2023/01/29 07:48:05;;;;;;;30.40;20.58;;;4.20;99.90;;;;;;4996052;28;20038;-92
2023/01/29 07:50:31;;;;;;;29.90;19.58;;;4.20;99.90;;;;;;4988549;28;20125;-91
2023/01/29 07:52:57;;;;;;;30.90;19.30;;;4.10;99.90;;;;;;4995136;28;20077;-89
2023/01/29 07:55:23;;;;;;;36.78;33.08;;;4.10;99.90;;;;;;4992772;28;20047;-91
2023/01/29 07:57:56;;;;;;;32.50;19.63;;;4.20;99.90;;;;;;5002071;28;20116;-91
2023/01/29 08:00:22;;;;;;;31.27;18.92;;;4.20;99.90;;;;;;5007487;28;20046;-90
2023/01/29 08:02:48;;;;;;;33.80;23.00;;;4.20;99.90;;;;;;4986652;28;20503;-89
2023/01/29 08:05:13;;;;;;;29.27;20.27;;;4.20;99.90;;;;;;5006989;28;20042;-90
2023/01/29 08:07:39;;;;;;;30.90;20.63;;;4.20;99.90;;;;;;4992087;28;20041;-88
2023/01/29 08:10:05;;;;;;;33.40;21.63;;;4.20;99.90;;;;;;5009515;28;20042;-89
2023/01/29 08:12:30;;;;;;;30.05;20.92;;;4.20;99.90;;;;;;4992648;28;20113;-88
2023/01/29 08:14:56;;;;;;;32.42;22.63;;;4.20;99.90;;;;;;5010978;28;20355;-89
2023/01/29 08:17:22;;;;;;;30.98;21.00;;;4.20;99.90;;;;;;5001758;28;20084;-89
2023/01/29 08:19:47;;;;;;;32.00;21.38;;;4.20;99.90;;;;;;5005087;28;20058;-93
2023/01/29 08:22:15;;;;;;;30.63;22.05;;;4.20;99.90;;;;;;4997992;28;20061;-93
2023/01/29 08:24:41;;;;;;;32.92;22.00;;;4.20;99.90;;;;;;4995370;28;20038;-94
2023/01/29 08:27:07;;;;;;;33.35;21.40;;;4.20;99.90;;;;;;5007297;28;20045;-94
2023/01/29 08:29:32;;;;;;;34.72;21.52;;;4.20;99.90;;;;;;4997657;28;20035;-95
2023/01/29 08:31:58;;;;;;;30.77;20.60;;;4.20;99.90;;;;;;5016509;28;20042;-95
2023/01/29 08:34:23;;;;;;;31.88;21.23;;;4.30;99.90;;;;;;5002507;28;20709;-96
2023/01/29 08:36:49;;;;;;;31.00;19.20;;;4.30;99.90;;;;;;5004342;28;20017;-96
2023/01/29 08:39:15;;;;;;;30.15;20.38;;;4.30;99.90;;;;;;5016142;28;20034;-96
2023/01/29 08:41:41;;;;;;;29.25;19.20;;;4.40;99.90;;;;;;5028511;28;20049;-93
2023/01/29 10:32:59;;;;;;;31.38;21.08;;;5.00;99.90;;;;;;836275;22;20333;-87
2023/01/29 10:35:31;;;;;;;35.38;31.75;;;5.00;99.90;;;;;;4988369;28;20421;-92
2023/01/29 10:38:01;;;;;;;36.47;32.78;;;5.00;99.90;;;;;;4992135;28;20038;-91
2023/01/29 10:40:35;;;;;;;31.40;19.58;;;5.00;99.90;;;;;;4974466;28;20206;-91
2023/01/29 10:43:30;;;;;;;32.50;19.25;;;5.00;99.90;;;;;;4991303;28;20118;-89
2023/01/29 10:46:24;;;;;;;31.23;19.48;;;5.00;99.90;;;;;;4972390;28;20043;-90
2023/01/29 10:49:20;;;;;;;30.50;20.55;;;4.90;99.90;;;;;;4962471;28;20058;-90
2023/01/29 10:52:12;;;;;;;32.35;21.63;;;4.90;99.90;;;;;;4990668;28;20530;-91
2023/01/29 10:55:03;;;;;;;30.60;19.58;;;4.90;99.90;;;;;;4982424;28;20047;-91
2023/01/29 10:57:58;;;;;;;30.35;19.60;;;4.90;99.90;;;;;;4992017;28;20050;-91
2023/01/29 11:00:29;;;;;;;30.52;20.23;;;4.90;99.90;;;;;;4970706;28;20042;-91
2023/01/29 11:02:55;;;;;;;32.10;22.05;;;4.90;99.90;;;;;;4977004;28;20078;-91
2023/01/29 11:05:36;;;;;;;33.30;21.52;;;4.90;99.90;;;;;;4976158;28;20088;-90
2023/01/29 11:08:17;;;;;;;;;;;4.80;99.90;;;;;;4993583;28;20042;-91
2023/01/29 11:10:58;;;;;;;33.30;22.55;;;4.90;99.90;;;;;;4975594;28;19917;-89
2023/01/29 11:13:30;;;;;;;34.25;21.15;;;4.80;99.90;;;;;;4969573;28;20049;-90
2023/01/29 11:15:56;;;;;;;36.30;32.65;;;4.90;99.90;;;;;;4993271;28;20049;-91
2023/01/29 11:18:21;;;;;;;30.83;19.20;;;4.90;99.90;;;;;;4994720;28;20047;-90
2023/01/29 11:21:00;;;;;;;35.40;22.38;;;4.90;99.90;;;;;;4995949;28;20278;-90
2023/01/29 11:23:28;;;;;;;29.50;20.27;;;4.90;99.90;;;;;;4993921;28;20471;-90
2023/01/29 11:25:56;;;;;;;32.17;23.52;;;4.90;99.90;;;;;;4976702;28;20039;-89
2023/01/29 11:28:36;;;;;;;37.63;33.65;;;4.90;99.90;;;;;;4986973;28;20407;-89
2023/01/29 11:31:02;;;;;;;32.08;23.70;;;4.90;99.90;;;;;;4981304;28;20041;-89
2023/01/29 11:33:29;;;;;;;33.28;21.77;;;4.90;99.90;;;;;;4992996;28;20047;-89
2023/01/29 11:35:56;;;;;;;32.35;21.92;;;4.90;99.90;;;;;;4995058;28;20410;-88
2023/01/29 11:38:24;;;;;;;30.95;18.92;;;4.90;99.90;;;;;;4976056;28;20065;-88
2023/01/29 11:40:50;;;;;;;30.65;20.17;;;4.90;99.90;;;;;;4992449;28;20151;-90
2023/01/29 11:43:20;;;;;;;38.05;34.40;;;5.00;99.90;;;;;;4995991;28;20031;-90
2023/01/29 11:45:49;;;;;;;32.70;21.67;;;5.00;99.90;;;;;;4990469;28;20038;-88
2023/01/29 11:48:25;;;;;;;33.45;23.00;;;5.00;99.90;;;;;;4969749;28;20527;-90
2023/01/29 11:50:59;;;;;;;34.78;22.48;;;5.00;99.90;;;;;;4974454;28;20030;-90
2023/01/29 11:53:48;;;;;;;36.97;25.08;;;5.00;99.90;;;;;;4977476;28;20038;-90
2023/01/29 11:56:21;;;;;;;34.08;22.58;;;5.10;99.90;;;;;;4968740;28;20047;-88
2023/01/29 11:58:48;;;;;;;35.13;20.90;;;5.10;99.90;;;;;;4983024;28;20035;-89
2023/01/29 12:01:18;;;;;;;33.78;21.25;;;5.20;99.90;;;;;;4993838;28;20042;-91
2023/01/29 12:03:51;;;;;;;34.28;22.42;;;5.20;99.90;;;;;;4992645;28;20030;-89
2023/01/29 12:06:35;;;;;;;31.40;19.17;;;5.20;99.90;;;;;;5002052;28;20430;-89
2023/01/29 12:09:09;;;;;;;29.42;19.75;;;5.30;99.90;;;;;;4984318;28;20103;-92
2023/01/29 12:11:34;;;;;;;31.42;18.58;;;5.30;99.90;;;;;;4978710;28;20098;-91
2023/01/29 12:14:05;;;;;;;34.50;30.73;;;5.40;99.90;;;;;;4982450;28;20065;-94
2023/01/29 12:16:57;;;;;;;25.77;17.08;;;5.40;99.90;;;;;;4979414;28;20147;-94
2023/01/29 12:19:35;;;;;;;36.67;23.63;;;5.50;99.90;;;;;;4998999;28;20058;-95
2023/01/29 12:22:04;;;;;;;26.58;17.73;;;5.60;99.90;;;;;;4997363;28;20080;-94
2023/01/29 12:24:49;;;;;;;34.72;31.13;;;5.60;99.90;;;;;;5006585;28;20101;-94
2023/01/29 12:27:26;;;;;;;29.75;18.23;;;5.70;99.90;;;;;;4977679;28;20047;-93
2023/01/29 12:30:00;;;;;;;27.67;19.98;;;5.70;99.90;;;;;;4969334;28;20034;-94
2023/01/29 12:32:47;;;;;;;28.20;14.57;;;5.70;99.90;;;;;;4987030;28;20026;-94
2023/01/29 12:35:30;;;;;;;32.17;28.88;;;5.80;99.90;;;;;;4981749;28;20055;-95
2023/01/29 12:38:19;;;;;;;29.00;19.17;;;5.90;99.90;;;;;;4994653;28;20037;-94
2023/01/29 12:40:54;;;;;;;20.73;14.20;;;5.90;99.90;;;;;;4974736;28;20038;-94
2023/01/29 12:43:37;;;;;;;31.48;18.65;;;5.90;99.90;;;;;;4998574;28;20066;-95
2023/01/29 12:46:08;;;;;;;26.75;17.90;;;5.80;99.90;;;;;;4999216;28;20042;-93
2023/01/29 12:48:36;;;;;;;;;;;5.80;99.90;;;;;;5000241;28;20114;-94
2023/01/29 12:51:17;;;;;;;29.83;19.42;;;5.80;99.90;;;;;;4985439;28;19922;-94
2023/01/29 12:53:48;;;;;;;29.58;20.05;;;5.80;99.90;;;;;;4982695;28;20085;-92
2023/01/29 12:56:25;;;;;;;24.27;17.17;;;5.90;99.90;;;;;;4985670;28;20062;-93
2023/01/29 12:58:53;;;;;;;27.48;17.90;;;5.90;99.90;;;;;;4986399;28;20077;-92
2023/01/29 13:01:27;;;;;;;29.23;16.33;;;5.90;99.90;;;;;;4983850;28;20035;-93
2023/01/29 13:04:02;;;;;;;30.63;27.35;;;5.90;99.90;;;;;;5000594;28;20035;-95
2023/01/29 13:06:37;;;;;;;33.42;29.92;;;5.90;99.90;;;;;;4997020;28;20034;-95
2023/01/29 13:09:07;;;;;;;34.22;30.67;;;5.80;99.90;;;;;;4982869;28;20077;-93
2023/01/29 13:11:45;;;;;;;29.98;20.25;;;5.70;99.90;;;;;;4984593;28;20023;-94
2023/01/29 13:14:23;;;;;;;30.17;16.95;;;5.70;99.90;;;;;;4999750;28;20053;-94
2023/01/29 13:16:54;;;;;;;28.35;17.42;;;5.60;99.90;;;;;;4997796;28;21126;-95
2023/01/29 13:19:27;;;;;;;30.05;18.67;;;5.50;99.90;;;;;;4996048;28;20093;-96
2023/01/29 13:21:55;;;;;;;36.20;32.50;;;5.40;99.90;;;;;;4996386;28;20026;-94
2023/01/29 13:24:24;;;;;;;28.95;17.90;;;5.30;99.90;;;;;;4996853;28;20061;-96
2023/01/29 13:26:50;;;;;;;20.10;11.05;;;5.40;99.90;;;;;;4993913;28;20058;-96
2023/01/29 13:29:28;;;;;;;29.05;18.95;;;5.40;99.90;;;;;;4995577;28;20034;-96
2023/01/29 13:32:02;;;;;;;25.00;17.02;;;5.40;99.90;;;;;;4995323;28;20515;-95
2023/01/29 13:34:44;;;;;;;29.63;20.75;;;5.50;99.90;;;;;;4994805;28;20085;-94
2023/01/29 13:37:26;;;;;;;30.67;20.98;;;5.40;99.90;;;;;;4979353;28;20048;-95
2023/01/29 13:39:54;;;;;;;31.45;22.27;;;5.50;99.90;;;;;;4992571;28;20195;-94
2023/01/29 13:42:41;;;;;;;34.65;31.10;;;5.40;99.90;;;;;;4999462;28;20125;-96
2023/01/29 13:45:20;;;;;;;25.30;16.65;;;5.40;99.90;;;;;;4999342;28;20064;-94
2023/01/29 13:47:47;;;;;;;28.27;17.20;;;5.40;99.90;;;;;;4993345;28;20038;-93
2023/01/29 13:50:27;;;;;;;28.10;19.05;;;5.50;99.90;;;;;;4995913;28;20038;-96
2023/01/29 13:52:55;;;;;;;32.13;18.73;;;5.50;99.90;;;;;;5003952;28;20085;-96
2023/01/29 13:55:29;;;;;;;34.38;30.88;;;5.50;99.90;;;;;;4999596;28;20081;-96
2023/01/29 13:57:59;;;;;;;29.95;19.70;;;5.50;99.90;;;;;;4983185;28;20046;-96
2023/01/29 14:00:29;;;;;;;28.20;15.60;;;5.50;99.90;;;;;;4998414;28;20054;-95
2023/01/29 14:03:07;;;;;;;32.20;16.63;;;5.50;99.90;;;;;;4999211;28;20073;-93
2023/01/29 14:06:01;;;;;;;33.33;20.35;;;5.50;99.90;;;;;;4993757;28;20038;-94
2023/01/29 14:08:44;;;;;;;35.28;31.58;;;5.50;99.90;;;;;;4991311;28;20551;-94
2023/01/29 14:11:15;;;;;;;29.70;19.77;;;5.50;99.90;;;;;;4985735;28;20035;-95
2023/01/29 14:13:42;;;;;;;;;;;5.40;99.90;;;;;;4988886;28;20039;-94
2023/01/29 14:16:10;;;;;;;29.75;20.65;;;5.50;99.90;;;;;;4988323;28;19996;-93
2023/01/29 14:18:48;;;;;;;24.05;13.05;;;5.40;99.90;;;;;;4991896;28;20077;-96
2023/01/29 14:21:23;;;;;;;39.40;35.30;;;5.40;99.90;;;;;;4991048;28;20089;-93
2023/01/29 14:23:51;;;;;;;35.92;20.08;;;5.30;99.90;;;;;;4986250;28;20039;-91
2023/01/29 14:26:33;;;;;;;30.92;18.58;;;5.20;99.90;;;;;;5000699;28;20038;-94
2023/01/29 14:29:10;;;;;;;30.27;17.45;;;5.20;99.90;;;;;;4983489;28;20056;-91
2023/01/29 14:31:52;;;;;;;29.75;20.13;;;5.20;99.90;;;;;;4997010;28;20038;-93
2023/01/29 14:34:29;;;;;;;34.25;22.23;;;5.10;99.90;;;;;;4991530;28;20077;-92
2023/01/29 14:36:57;;;;;;;37.05;24.75;;;5.10;99.90;;;;;;4994697;28;20065;-95
2023/01/29 14:39:47;;;;;;;36.08;24.92;;;5.00;99.90;;;;;;4997594;28;20452;-93
2023/01/29 14:42:44;;;;;;;38.28;27.27;;;4.90;99.90;;;;;;4993690;28;20039;-94
2023/01/29 14:45:46;;;;;;;44.15;39.58;;;4.90;99.90;;;;;;5010517;28;20042;-94
2023/01/29 14:48:11;;;;;;;37.45;25.52;;;4.80;99.90;;;;;;4919309;29;20067;-93
2023/01/29 14:50:45;;;;;;;37.53;23.40;;;4.80;99.90;;;;;;4924455;29;20047;-94
2023/01/29 14:53:42;;;;;;;45.60;40.72;;;4.70;99.90;;;;;;4911547;29;20052;-96
2023/01/29 14:56:20;;;;;;;36.63;23.15;;;4.70;99.90;;;;;;4889232;29;20076;-94
2023/01/29 14:58:50;;;;;;;36.30;23.85;;;4.70;99.90;;;;;;4922371;29;20044;-94
2023/01/29 15:01:26;;;;;;;40.13;23.50;;;4.70;99.90;;;;;;4923408;29;20575;-94
2023/01/29 15:03:59;;;;;;;36.40;20.85;;;4.60;99.90;;;;;;4933031;29;20048;-94
2023/01/29 15:06:46;;;;;;;49.75;44.30;;;4.60;99.90;;;;;;4936541;29;20056;-93
2023/01/29 15:09:37;;;;;;;39.53;25.02;;;4.60;99.90;;;;;;4922807;29;20044;-94
2023/01/29 15:12:16;;;;;;;37.22;21.10;;;4.50;99.90;;;;;;4923983;29;20469;-93
2023/01/29 15:14:58;;;;;;;37.17;21.45;;;4.50;99.90;;;;;;4921887;29;20046;-94
2023/01/29 15:17:29;;;;;;;36.50;22.40;;;4.50;99.90;;;;;;4938472;29;20048;-94
2023/01/29 15:19:56;;;;;;;44.72;27.23;;;4.50;99.90;;;;;;4925366;29;20044;-94
2023/01/29 15:22:28;;;;;;;42.50;25.55;;;4.60;99.90;;;;;;4953260;28;20050;-95
2023/01/29 15:25:13;;;;;;;41.47;24.52;;;4.50;99.90;;;;;;4996945;28;20089;-94